createdAt,value
2022-08-30T00:03:17.256Z,1.30
2022-08-30T00:08:39.173Z,1.20
2022-08-30T00:14:00.375Z,1.58
2022-08-30T00:19:20.943Z,1.40
2022-08-30T00:24:41.812Z,1.27
2022-08-30T00:30:03.016Z,1.38
2022-08-30T00:35:24.255Z,1.30
2022-08-30T00:40:46.211Z,1.50
2022-08-30T00:46:08.612Z,1.75
2022-08-30T00:51:32.022Z,1.20
2022-08-30T00:56:53.287Z,1.60
2022-08-30T01:02:14.571Z,1.10
2022-08-30T01:07:35.303Z,1.20
2022-08-30T01:12:56.197Z,1.30
2022-08-30T01:18:18.893Z,1.48
2022-08-30T01:23:46.278Z,1.55
2022-08-30T01:29:11.933Z,1.45
2022-08-30T01:34:32.718Z,1.45
2022-08-30T01:39:53.890Z,1.20
2022-08-30T01:45:14.528Z,1.05
2022-08-30T01:50:35.233Z,1.60
2022-08-30T01:55:59.208Z,1.55
2022-08-30T02:01:23.777Z,2.30
2022-08-30T02:06:44.828Z,2.08
2022-08-30T02:12:08.084Z,1.95
2022-08-30T02:17:29.047Z,1.95
2022-08-30T02:22:50.307Z,1.60
2022-08-30T02:28:11.792Z,2.00
2022-08-30T02:33:38.024Z,1.45
2022-08-30T02:39:01.227Z,1.38
2022-08-30T02:44:21.954Z,2.13
2022-08-30T02:49:42.842Z,1.38
2022-08-30T02:55:05.413Z,1.52
2022-08-30T03:00:26.068Z,1.90
2022-08-30T03:05:46.819Z,1.60
2022-08-30T03:11:07.825Z,2.13
2022-08-30T03:16:28.553Z,2.00
2022-08-30T03:21:50.437Z,2.13
2022-08-30T03:27:12.665Z,2.15
2022-08-30T03:32:34.111Z,2.03
2022-08-30T03:37:56.269Z,1.98
2022-08-30T03:43:17.526Z,2.35
2022-08-30T03:48:38.522Z,2.30
2022-08-30T03:53:59.927Z,2.17
2022-08-30T03:59:21.016Z,1.92
2022-08-30T04:04:42.078Z,2.38
2022-08-30T04:10:05.356Z,2.53
2022-08-30T04:15:25.960Z,2.50
2022-08-30T04:20:47.489Z,2.30
2022-08-30T04:26:08.828Z,2.38
2022-08-30T04:31:31.724Z,2.40
2022-08-30T04:36:52.824Z,2.38
2022-08-30T04:42:13.929Z,1.92
2022-08-30T04:47:35.179Z,2.50
2022-08-30T04:52:55.656Z,1.88
2022-08-30T04:58:16.727Z,2.20
2022-08-30T05:03:37.851Z,2.13
2022-08-30T05:09:00.921Z,2.20
2022-08-30T05:14:21.513Z,2.40
2022-08-30T05:19:42.427Z,2.42
2022-08-30T05:25:05.157Z,2.60
2022-08-30T05:30:27.919Z,2.80
2022-08-30T05:35:48.899Z,2.40
2022-08-30T05:41:10.786Z,2.17
2022-08-30T05:51:55.506Z,2.85
2022-08-30T05:57:17.530Z,3.17
2022-08-30T06:02:38.373Z,2.70
2022-08-30T06:07:59.120Z,2.75
2022-08-30T06:13:19.765Z,2.90
2022-08-30T06:18:41.122Z,2.97
2022-08-30T06:24:04.275Z,2.78
2022-08-30T06:29:25.289Z,3.40
2022-08-30T06:34:46.124Z,3.13
2022-08-30T06:40:07.512Z,3.08
2022-08-30T06:45:28.089Z,2.95
2022-08-30T06:50:54.097Z,2.50
2022-08-30T06:56:17.868Z,2.90
2022-08-30T07:01:39.188Z,3.10
2022-08-30T07:07:00.350Z,2.70
2022-08-30T07:12:21.572Z,3.20
2022-08-30T07:18:01.381Z,2.80
2022-08-30T07:28:44.914Z,3.15
2022-08-30T07:34:07.549Z,4.30
2022-08-30T07:39:28.889Z,3.47
2022-08-30T07:44:56.508Z,3.30
2022-08-30T07:50:17.502Z,3.47
2022-08-30T07:55:38.912Z,3.67
2022-08-30T08:01:00.292Z,4.15
2022-08-30T08:06:23.740Z,3.92
2022-08-30T08:11:44.307Z,3.58
2022-08-30T08:17:05.193Z,3.83
2022-08-30T08:22:26.007Z,3.70
2022-08-30T08:27:49.092Z,3.60
2022-08-30T08:33:10.745Z,3.40
2022-08-30T08:38:32.096Z,3.72
2022-08-30T08:43:52.952Z,3.92
2022-08-30T08:49:13.707Z,4.30
2022-08-30T08:54:43.052Z,3.55
2022-08-30T09:00:10.271Z,3.00
2022-08-30T09:05:41.103Z,3.30
2022-08-30T09:11:13.514Z,3.75
2022-08-30T09:16:48.110Z,3.33
2022-08-30T09:22:35.753Z,4.03
2022-08-30T09:28:12.051Z,4.15
2022-08-30T09:33:33.694Z,3.47
2022-08-30T09:39:01.958Z,3.20
2022-08-30T09:44:28.010Z,3.60
2022-08-30T09:49:49.243Z,3.00
2022-08-30T09:55:32.149Z,3.25
2022-08-30T10:01:04.553Z,3.85
2022-08-30T10:06:34.072Z,5.85
2022-08-30T10:12:23.023Z,4.45
2022-08-30T10:18:04.660Z,4.50
2022-08-30T10:23:33.885Z,4.90
2022-08-30T10:34:39.950Z,4.63
2022-08-30T10:40:28.344Z,4.00
2022-08-30T10:45:51.364Z,4.28
2022-08-30T10:51:26.821Z,4.20
2022-08-30T10:56:54.352Z,4.68
2022-08-30T11:02:30.753Z,3.65
2022-08-30T11:08:37.354Z,2.85
2022-08-30T11:14:05.444Z,2.97
2022-08-30T11:19:32.179Z,2.57
2022-08-30T11:25:09.675Z,2.63
2022-08-30T11:30:31.077Z,3.40
2022-08-30T11:35:53.740Z,2.45
2022-08-30T11:41:30.608Z,2.53
2022-08-30T11:46:59.931Z,2.50
2022-08-30T11:52:42.219Z,2.58
2022-08-30T11:58:11.579Z,2.10
2022-08-30T12:03:35.134Z,2.25
2022-08-30T12:09:02.715Z,2.08
2022-08-30T12:14:49.564Z,1.50
2022-08-30T12:20:22.962Z,2.10
2022-08-30T12:25:43.808Z,1.80
2022-08-30T12:31:11.613Z,1.67
2022-08-30T12:36:39.546Z,2.08
2022-08-30T12:42:19.093Z,1.85
2022-08-30T12:47:52.623Z,1.80
2022-08-30T12:53:14.392Z,2.10
2022-08-30T12:58:52.642Z,1.60
2022-08-30T13:04:21.393Z,2.10
2022-08-30T13:09:44.360Z,1.63
2022-08-30T13:15:19.877Z,1.45
2022-08-30T13:20:40.990Z,1.80
2022-08-30T13:26:01.984Z,1.73
2022-08-30T13:31:23.127Z,2.10
2022-08-30T13:36:48.293Z,1.88
2022-08-30T13:47:50.478Z,2.33
2022-08-30T13:53:11.572Z,1.98
2022-08-30T13:58:33.431Z,2.05
2022-08-30T14:09:35.423Z,2.20
2022-08-30T14:14:59.524Z,1.90
2022-08-30T14:20:20.985Z,2.35
2022-08-30T14:25:41.847Z,2.30
2022-08-30T14:31:02.631Z,2.55
2022-08-30T14:36:23.625Z,2.67
2022-08-30T14:41:52.106Z,2.08
2022-08-30T14:47:13.004Z,2.20
2022-08-30T14:52:34.183Z,1.90
2022-08-30T14:57:54.809Z,2.10
2022-08-30T15:03:15.709Z,2.53
2022-08-30T15:08:37.333Z,2.00
2022-08-30T15:13:58.285Z,2.60
2022-08-30T15:19:19.238Z,2.58
2022-08-30T15:24:40.959Z,2.20
2022-08-30T15:30:01.898Z,2.28
2022-08-30T15:35:22.874Z,1.80
2022-08-30T15:40:44.763Z,2.38
2022-08-30T15:46:30.088Z,1.90
2022-08-30T15:51:54.355Z,1.70
2022-08-30T15:57:15.873Z,2.13
2022-08-30T16:02:36.867Z,1.95
2022-08-30T16:07:59.773Z,2.13
2022-08-30T16:13:20.798Z,2.40
2022-08-30T16:18:41.959Z,1.80
2022-08-30T16:24:04.190Z,1.73
2022-08-30T16:29:25.456Z,2.65
2022-08-30T16:34:46.271Z,1.98
2022-08-30T16:40:07.682Z,2.20
2022-08-30T16:45:34.275Z,2.10
2022-08-30T16:50:56.771Z,1.85
2022-08-30T16:56:21.391Z,3.08
2022-08-30T17:07:24.821Z,1.85
2022-08-30T17:12:45.857Z,2.17
2022-08-30T17:18:07.165Z,2.70
2022-08-30T17:23:29.976Z,1.95
2022-08-30T17:28:50.918Z,2.30
2022-08-30T17:34:13.226Z,1.98
2022-08-30T17:39:34.843Z,1.83
2022-08-30T17:44:58.035Z,1.65
2022-08-30T17:50:22.159Z,1.75
2022-08-30T17:55:49.149Z,2.40
2022-08-30T18:01:13.455Z,1.98
2022-08-30T18:06:35.301Z,1.77
2022-08-30T18:11:56.365Z,1.95
2022-08-30T18:17:17.503Z,2.08
2022-08-30T18:22:38.170Z,1.70
2022-08-30T18:27:59.287Z,1.40
2022-08-30T18:33:20.028Z,1.85
2022-08-30T18:38:42.573Z,2.00
2022-08-30T18:44:26.327Z,1.90
2022-08-30T18:49:44.543Z,1.98
2022-08-30T18:55:05.968Z,2.35
2022-08-30T19:00:27.166Z,1.67
2022-08-30T19:05:47.869Z,1.80
2022-08-30T19:11:09.490Z,1.85
2022-08-30T19:16:30.262Z,1.88
2022-08-30T19:21:51.942Z,2.00
2022-08-30T19:27:12.842Z,2.13
2022-08-30T19:32:33.710Z,2.13
2022-08-30T19:37:54.813Z,1.95
2022-08-30T19:43:15.601Z,1.80
2022-08-30T19:48:43.166Z,2.03
2022-08-30T19:54:04.895Z,1.98
2022-08-30T19:59:29.302Z,2.30
2022-08-30T20:04:50.561Z,2.10
2022-08-30T20:10:13.909Z,2.10
2022-08-30T20:15:34.545Z,2.50
2022-08-30T20:20:57.044Z,1.92
2022-08-30T20:24:23.219Z,2.25
2022-08-30T20:26:18.122Z,2.22
2022-08-30T20:31:39.160Z,2.50
2022-08-30T20:37:00.073Z,2.17
2022-08-30T20:42:21.154Z,2.45
2022-08-30T20:47:43.230Z,2.55
2022-08-30T20:53:04.321Z,2.40
2022-08-30T20:58:25.259Z,2.65
2022-08-30T21:03:47.698Z,2.58
2022-08-30T21:09:09.098Z,2.40
2022-08-30T21:14:29.786Z,2.42
2022-08-30T21:19:54.463Z,2.63
2022-08-30T21:25:15.267Z,2.55
2022-08-30T21:30:36.797Z,2.05
2022-08-30T21:36:17.685Z,2.10
2022-08-30T21:41:39.415Z,2.13
2022-08-30T21:46:59.973Z,1.60
2022-08-30T21:52:20.767Z,1.70
2022-08-30T21:57:41.378Z,2.28
2022-08-30T22:03:02.402Z,2.22
2022-08-30T22:08:23.122Z,2.03
2022-08-30T22:13:46.239Z,1.85
2022-08-30T22:19:09.550Z,2.63
2022-08-30T22:24:32.868Z,1.80
2022-08-30T22:29:53.746Z,2.03
2022-08-30T22:35:14.406Z,1.90
2022-08-30T22:40:35.560Z,2.00
2022-08-30T22:45:57.985Z,2.47
2022-08-30T22:51:21.462Z,2.08
2022-08-30T22:56:42.299Z,2.28
2022-08-30T23:02:03.471Z,2.58
2022-08-30T23:07:24.839Z,2.05
2022-08-30T23:12:45.537Z,1.88
2022-08-30T23:18:06.597Z,2.38
2022-08-30T23:23:45.956Z,1.75
2022-08-30T23:29:25.860Z,1.73
2022-08-30T23:35:05.516Z,2.47
2022-08-30T23:40:45.318Z,2.20
2022-08-30T23:46:24.381Z,1.90
2022-08-30T23:52:03.408Z,2.10
2022-08-30T23:57:43.151Z,2.00
